Terminal Aerodrome Forecast
Issued by NWS Green Bay, WI

Home | Current Version | Previous Version | Graphics & Text | Print | Product List | Glossary On
Versions: 1 2 3 4 5 6 7 8 9 10 11 12 13 14 15 16 17 18 19 20 21 22 23 24 25 26 27 28 29 30 31 32 33 34 35 36 37
000
FTUS43 KGRB 281300 AAA
TAFGRB
TAF AMD
KGRB 281332Z 2814/2912 18006KT 5SM -SN BR SCT025 OVC050
      TEMPO 2814/2818 1SM -SN OVC025
     FM281800 18007KT 2SM -SN BR OVC015
     FM290000 19005KT 3SM -FZDZSN BR OVC012
     FM290500 16004KT 4SM BR OVC009=

USA.gov is the U.S. government's official web portal to all federal, state and local government web resources and services.